Petersburg, VA

11:46 AM EDT on March 27, 2015 (GMT -0400)
Colonial Heights Fire Station 2 | | Change Station
CLOSE
Current Station
Personal Weather Station
Location: Colonial Heights, VA
Elevation: 100 ft
Nearby Weather Stations

Elev 100 ft 37.27 °N, 77.40 °W | Updated 4 minutes ago

Overcast
Overcast
41.7 °F
Feels Like 33 °F
N
17.0
Wind Variable Wind from North

Today
High -- | Low -- °F
--% Chance of Precip.
Yesterday
High -- | Low -- °F
Precip. -- in
7:02 AM 7:27 PM
First Quarter, 53% visible
Pressure 29.83 in
Visibility 7.0 miles
Clouds Mostly Cloudy 800 ft
Mostly Cloudy 2000 ft
Overcast 2500 ft
Windchill 33 °F
Dew Point 40 °F
Humidity 93%
Rainfall 0.06 in
Snow Depth Not available.
UV 2 out of 12
Pollen 2.20 out of 12
Air Quality Not available.
Flu Activity Not available.
METAR KPTB 271535Z AUTO 02011KT 7SM -RA BKN008 BKN020 OVC025 07/05 A2983 RMK AO2 P0007 T00650053

More Conditions Fewer Conditions

Pressure 29.83 in
Visibility 7.0 miles
Clouds Mostly Cloudy 800 ft
Mostly Cloudy 2000 ft
Overcast 2500 ft
Windchill 33 °F
Dew Point 40 °F
Humidity 93%
Rainfall 0.06 in
Snow Depth Not available.
UV 2 out of 12
Pollen 2.20 out of 12
Air Quality Not available.
Flu Activity Not available.
METAR KPTB 271535Z AUTO 02011KT 7SM -RA BKN008 BKN020 OVC025 07/05 A2983 RMK AO2 P0007 T00650053

More Conditions Fewer Conditions

10-Day Weather Forecast

Almanac

Astronomy

Mar. 27, 2015 Rise Set
Actual Time
Civil Twilight
Nautical Twilight
Astronomical Twilight
Moon
Length of Visible Light
Length of Day
Tomorrow will be .
, % of the Moon is Illuminated

Today's Extremes

State Highs State Lows

Community

WunderPhotos

Upload Photos

1,808,762 photos uploaded!

WunderBlogs® & News

Nearby

Air Quality

  Air Quality AQ Index Pollutant
Not available.

Snow Depth

Station Depth Elevation

Earthquake Activity

City Distance Mag. Time & Date
Minimum magnitude displayed is 2.5.

Coastal Water Temperatures

Place Temperature

Stations

Nearby Weather Stations

Station Location Temp. Windchill Dew Point Humidity Wind Precip. Elev Updated Type